Station Historical Data
Daily Summary for February 23, 2018 Units:  English    Metric   Both
« Previous Day
Next Day »
Daily Weekly Monthly Yearly Custom
  High: Low: Average:
Temperature: 51.9 °F 33.5 °F 41.6 °F
Dew Point: 49.4 °F 29.8 °F 37.8 °F
Humidity: 93% 77% 87%
Wind Speed: 17.0mph 0.0mph 5.1mph
Wind Gust: 27.0mph - -
Wind- - SSE
Pressure: 30.59 in 30.05 in -
Precipitation: 0.00 in    
Historical Graphs
 
 
Tabular Data for February 23, 2018
Time Temperature Dew Point Pressure Wind Wind Speed Wind Gust Humidity Rainfall Rate (Hourly)
00:04 33.8 °F 30.3 °F 30.59 in NE 4.0 mph 9.0 mph 87% 0.00 in
00:09 33.8 °F 30.3 °F 30.59 in NE 5.0 mph 11.0 mph 87% 0.00 in
00:14 33.9 °F 30.4 °F 30.59 in NE 3.0 mph 9.0 mph 87% 0.00 in
00:19 33.9 °F 30.4 °F 30.58 in ENE 5.0 mph 9.0 mph 87% 0.00 in
00:24 33.9 °F 30.4 °F 30.58 in NE 5.0 mph 9.0 mph 87% 0.00 in
00:29 33.9 °F 30.2 °F 30.57 in NE 5.0 mph 13.0 mph 86% 0.00 in
00:34 34.0 °F 30.3 °F 30.56 in ENE 5.0 mph 13.0 mph 86% 0.00 in
00:39 33.9 °F 30.2 °F 30.56 in East 3.0 mph 14.0 mph 86% 0.00 in
00:44 34.0 °F 30.3 °F 30.56 in ENE 2.0 mph 13.0 mph 86% 0.00 in
00:49 33.9 °F 30.2 °F 30.56 in ENE 6.0 mph 13.0 mph 86% 0.00 in
00:54 33.9 °F 30.2 °F 30.56 in ENE 5.0 mph 15.0 mph 86% 0.00 in
00:59 33.9 °F 30.2 °F 30.56 in ENE 4.0 mph 9.0 mph 86% 0.00 in
01:04 33.9 °F 30.2 °F 30.56 in NNE 4.0 mph 11.0 mph 86% 0.00 in
01:09 33.9 °F 30.2 °F 30.56 in ENE 5.0 mph 13.0 mph 86% 0.00 in
01:14 33.9 °F 30.2 °F 30.56 in Calm   12.0 mph 86% 0.00 in
01:19 33.8 °F 30.1 °F 30.57 in NE 3.0 mph 17.0 mph 86% 0.00 in
01:24 33.8 °F 30.1 °F 30.56 in NE 5.0 mph 17.0 mph 86% 0.00 in
01:29 33.8 °F 30.1 °F 30.57 in ENE 5.0 mph 10.0 mph 86% 0.00 in
01:34 33.8 °F 30.1 °F 30.57 in ENE 5.0 mph 10.0 mph 86% 0.00 in
01:39 33.8 °F 30.1 °F 30.56 in ENE 1.0 mph 8.0 mph 86% 0.00 in
01:44 33.8 °F 30.1 °F 30.56 in ENE 5.0 mph 11.0 mph 86% 0.00 in
01:49 33.8 °F 30.1 °F 30.57 in East 2.0 mph 6.0 mph 86% 0.00 in
01:54 33.8 °F 30.1 °F 30.56 in ENE 3.0 mph 9.0 mph 86% 0.00 in
01:59 33.8 °F 30.1 °F 30.56 in ENE 3.0 mph 9.0 mph 86% 0.00 in
02:04 33.9 °F 30.2 °F 30.56 in NE 5.0 mph 13.0 mph 86% 0.00 in
02:09 33.9 °F 30.2 °F 30.55 in NE 5.0 mph 9.0 mph 86% 0.00 in
02:14 33.9 °F 30.2 °F 30.55 in NE 4.0 mph 9.0 mph 86% 0.00 in
02:19 34.0 °F 30.3 °F 30.55 in ENE 5.0 mph 10.0 mph 86% 0.00 in
02:24 34.0 °F 30.3 °F 30.54 in ENE 5.0 mph 10.0 mph 86% 0.00 in
02:29 34.0 °F 30.3 °F 30.54 in ENE 5.0 mph 10.0 mph 86% 0.00 in
02:34 34.0 °F 30.0 °F 30.53 in NE 4.0 mph 12.0 mph 85% 0.00 in
02:39 34.0 °F 30.0 °F 30.54 in East 5.0 mph 8.0 mph 85% 0.00 in
02:44 34.0 °F 30.0 °F 30.53 in ENE 3.0 mph 10.0 mph 85% 0.00 in
02:49 33.9 °F 29.9 °F 30.52 in East 3.0 mph 10.0 mph 85% 0.00 in
02:54 33.9 °F 29.9 °F 30.51 in ENE 5.0 mph 10.0 mph 85% 0.00 in
02:59 33.8 °F 29.8 °F 30.51 in ENE 5.0 mph 10.0 mph 85% 0.00 in
03:04 33.8 °F 29.8 °F 30.52 in ENE 5.0 mph 13.0 mph 85% 0.00 in
03:09 33.8 °F 30.1 °F 30.51 in NE 2.0 mph 10.0 mph 86% 0.00 in
03:14 33.8 °F 30.1 °F 30.52 in NE 2.0 mph 10.0 mph 86% 0.00 in
03:24 33.8 °F 30.1 °F 30.52 in ENE 5.0 mph 12.0 mph 86% 0.00 in
03:29 33.9 °F 30.2 °F 30.52 in ENE 5.0 mph 12.0 mph 86% 0.00 in
03:34 33.8 °F 30.1 °F 30.51 in ENE 7.0 mph 11.0 mph 86% 0.00 in
03:39 33.7 °F 30.0 °F 30.50 in ENE 4.0 mph 9.0 mph 86% 0.00 in
03:44 33.7 °F 30.0 °F 30.50 in ESE 2.0 mph 10.0 mph 86% 0.00 in
03:49 33.6 °F 29.9 °F 30.50 in East 4.0 mph 10.0 mph 86% 0.00 in
03:54 33.5 °F 29.8 °F 30.49 in East 4.0 mph 10.0 mph 86% 0.00 in
03:59 33.5 °F 29.8 °F 30.50 in NE 4.0 mph 7.0 mph 86% 0.00 in
04:04 33.6 °F 29.9 °F 30.49 in ENE 4.0 mph 10.0 mph 86% 0.00 in
04:09 33.7 °F 30.0 °F 30.48 in East 1.0 mph 14.0 mph 86% 0.00 in
04:14 33.7 °F 30.2 °F 30.48 in NE 6.0 mph 10.0 mph 87% 0.00 in
04:19 33.8 °F 30.3 °F 30.48 in ENE 4.0 mph 10.0 mph 87% 0.00 in
04:24 33.8 °F 30.3 °F 30.47 in ENE 5.0 mph 10.0 mph 87% 0.00 in
04:34 33.9 °F 30.4 °F 30.46 in ENE 5.0 mph 11.0 mph 87% 0.00 in
04:39 33.9 °F 30.4 °F 30.46 in ESE 7.0 mph 11.0 mph 87% 0.00 in
04:44 34.0 °F 30.5 °F 30.46 in East 3.0 mph 9.0 mph 87% 0.00 in
04:49 34.0 °F 30.5 °F 30.45 in ENE 2.0 mph 9.0 mph 87% 0.00 in
04:54 34.0 °F 30.5 °F 30.45 in East 4.0 mph 10.0 mph 87% 0.00 in
04:59 34.1 °F 30.6 °F 30.44 in East 7.0 mph 9.0 mph 87% 0.00 in
05:04 34.1 °F 30.6 °F 30.44 in ENE 5.0 mph 9.0 mph 87% 0.00 in
05:09 34.2 °F 30.7 °F 30.43 in ENE 11.0 mph 11.0 mph 87% 0.00 in
05:14 34.3 °F 30.8 °F 30.42 in ESE 5.0 mph 13.0 mph 87% 0.00 in
05:19 34.3 °F 30.8 °F 30.42 in East 2.0 mph 8.0 mph 87% 0.00 in
05:24 34.3 °F 30.8 °F 30.42 in East 3.0 mph 8.0 mph 87% 0.00 in
05:29 34.4 °F 30.9 °F 30.42 in East 3.0 mph 8.0 mph 87% 0.00 in
05:34 34.5 °F 31.0 °F 30.41 in ESE 1.0 mph 8.0 mph 87% 0.00 in
05:39 34.6 °F 31.1 °F 30.41 in ESE 2.0 mph 6.0 mph 87% 0.00 in
05:44 34.7 °F 31.2 °F 30.41 in SE 3.0 mph 10.0 mph 87% 0.00 in
05:49 34.8 °F 31.3 °F 30.41 in East 1.0 mph 8.0 mph 87% 0.00 in
05:54 34.9 °F 31.4 °F 30.41 in East 2.0 mph 3.0 mph 87% 0.00 in
05:59 35.1 °F 31.6 °F 30.40 in ESE 1.0 mph 4.0 mph 87% 0.00 in
06:04 35.2 °F 31.7 °F 30.40 in ESE 2.0 mph 7.0 mph 87% 0.00 in
06:09 35.4 °F 31.9 °F 30.40 in ESE 1.0 mph 7.0 mph 87% 0.00 in
06:14 35.6 °F 32.1 °F 30.40 in SE 1.0 mph 6.0 mph 87% 0.00 in
06:19 35.8 °F 32.0 °F 30.40 in ENE 1.0 mph 5.0 mph 86% 0.00 in
06:24 35.9 °F 32.4 °F 30.40 in SE 5.0 mph 5.0 mph 87% 0.00 in
06:29 36.1 °F 32.3 °F 30.39 in SE 1.0 mph 5.0 mph 86% 0.00 in
06:34 36.4 °F 32.6 °F 30.38 in SE 3.0 mph 9.0 mph 86% 0.00 in
06:39 36.5 °F 32.7 °F 30.37 in SE 3.0 mph 9.0 mph 86% 0.00 in
06:44 36.8 °F 33.0 °F 30.37 in SSE 4.0 mph 9.0 mph 86% 0.00 in
06:49 36.9 °F 33.1 °F 30.37 in SE 2.0 mph 5.0 mph 86% 0.00 in
06:54 37.0 °F 33.2 °F 30.37 in SSE 3.0 mph 7.0 mph 86% 0.00 in
06:59 37.2 °F 33.4 °F 30.37 in SSE 4.0 mph 8.0 mph 86% 0.00 in
07:04 37.3 °F 33.5 °F 30.37 in SE 3.0 mph 8.0 mph 86% 0.00 in
07:09 37.5 °F 33.4 °F 30.36 in SE 2.0 mph 7.0 mph 85% 0.00 in
07:14 37.6 °F 33.5 °F 30.36 in SE 2.0 mph 7.0 mph 85% 0.00 in
07:19 37.7 °F 33.6 °F 30.37 in ESE 2.0 mph 6.0 mph 85% 0.00 in
07:24 37.9 °F 33.8 °F 30.36 in Calm   5.0 mph 85% 0.00 in
07:29 38.0 °F 33.9 °F 30.36 in East 6.0 mph 7.0 mph 85% 0.00 in
07:34 38.2 °F 34.1 °F 30.35 in ESE 2.0 mph 8.0 mph 85% 0.00 in
07:39 38.2 °F 34.1 °F 30.36 in ESE 2.0 mph 8.0 mph 85% 0.00 in
07:44 38.3 °F 34.2 °F 30.36 in ESE 2.0 mph 5.0 mph 85% 0.00 in
07:49 38.4 °F 34.3 °F 30.36 in Calm   5.0 mph 85% 0.00 in
07:54 38.5 °F 34.1 °F 30.35 in ESE 1.0 mph 5.0 mph 84% 0.00 in
07:59 38.7 °F 34.3 °F 30.35 in East 5.0 mph 5.0 mph 84% 0.00 in
08:04 38.8 °F 34.4 °F 30.34 in East 2.0 mph 5.0 mph 84% 0.00 in
08:09 38.9 °F 34.5 °F 30.34 in East 1.0 mph 5.0 mph 84% 0.00 in
08:14 39.0 °F 34.6 °F 30.33 in East 1.0 mph 6.0 mph 84% 0.00 in
08:19 39.1 °F 34.7 °F 30.33 in East 1.0 mph 6.0 mph 84% 0.00 in
08:24 39.2 °F 34.8 °F 30.33 in East 1.0 mph 3.0 mph 84% 0.00 in
08:29 39.3 °F 34.9 °F 30.32 in East 1.0 mph 5.0 mph 84% 0.00 in
08:34 39.4 °F 35.0 °F 30.31 in East 1.0 mph 5.0 mph 84% 0.00 in
08:39 39.6 °F 35.2 °F 30.31 in ESE 2.0 mph 5.0 mph 84% 0.00 in
08:44 39.7 °F 35.3 °F 30.30 in ESE 2.0 mph 5.0 mph 84% 0.00 in
08:49 39.9 °F 35.5 °F 30.30 in SE 2.0 mph 5.0 mph 84% 0.00 in
08:54 40.0 °F 35.3 °F 30.28 in SE 2.0 mph 7.0 mph 83% 0.00 in
08:59 40.2 °F 35.4 °F 30.26 in SE 1.0 mph 8.0 mph 83% 0.00 in
09:04 40.7 °F 35.9 °F 30.27 in SE 1.0 mph 7.0 mph 83% 0.00 in
09:09 41.0 °F 35.9 °F 30.26 in SSE 3.0 mph 5.0 mph 82% 0.00 in
09:14 41.4 °F 36.3 °F 30.26 in SE 2.0 mph 5.0 mph 82% 0.00 in
09:19 41.7 °F 36.6 °F 30.27 in SE 5.0 mph 7.0 mph 82% 0.00 in
09:24 42.1 °F 37.0 °F 30.25 in SE 3.0 mph 8.0 mph 82% 0.00 in
09:29 42.6 °F 37.2 °F 30.25 in SSE 4.0 mph 10.0 mph 81% 0.00 in
09:34 42.9 °F 37.5 °F 30.25 in SSE 4.0 mph 9.0 mph 81% 0.00 in
09:39 43.3 °F 37.9 °F 30.24 in SSE 6.0 mph 9.0 mph 81% 0.00 in
09:44 43.8 °F 38.0 °F 30.24 in SSE 4.0 mph 9.0 mph 80% 0.00 in
09:49 44.1 °F 38.3 °F 30.24 in SSE 4.0 mph 9.0 mph 80% 0.00 in
09:54 44.5 °F 38.7 °F 30.24 in South 3.0 mph 8.0 mph 80% 0.00 in
09:59 44.8 °F 39.0 °F 30.23 in South 3.0 mph 7.0 mph 80% 0.00 in
10:04 45.0 °F 38.9 °F 30.24 in South 2.0 mph 8.0 mph 79% 0.00 in
10:09 45.1 °F 39.0 °F 30.23 in SSW 3.0 mph 7.0 mph 79% 0.00 in
10:14 45.1 °F 39.0 °F 30.23 in South 4.0 mph 7.0 mph 79% 0.00 in
10:19 45.3 °F 39.2 °F 30.23 in South 2.0 mph 5.0 mph 79% 0.00 in
10:24 45.4 °F 39.3 °F 30.23 in SSW 2.0 mph 6.0 mph 79% 0.00 in
10:29 45.6 °F 39.5 °F 30.21 in South 3.0 mph 8.0 mph 79% 0.00 in
10:34 45.7 °F 39.6 °F 30.21 in South 4.0 mph 8.0 mph 79% 0.00 in
10:39 45.7 °F 39.6 °F 30.21 in South 5.0 mph 7.0 mph 79% 0.00 in
10:44 45.7 °F 39.6 °F 30.21 in South 4.0 mph 7.0 mph 79% 0.00 in
10:49 45.7 °F 39.9 °F 30.21 in South 4.0 mph 8.0 mph 80% 0.00 in
10:54 45.7 °F 39.9 °F 30.20 in South 4.0 mph 8.0 mph 80% 0.00 in
10:59 45.8 °F 40.0 °F 30.20 in South 2.0 mph 5.0 mph 80% 0.00 in
11:04 46.0 °F 40.2 °F 30.20 in South 4.0 mph 11.0 mph 80% 0.00 in
11:09 46.2 °F 40.4 °F 30.19 in South 5.0 mph 10.0 mph 80% 0.00 in
11:14 46.5 °F 40.7 °F 30.19 in South 4.0 mph 10.0 mph 80% 0.00 in
11:19 46.7 °F 40.9 °F 30.18 in South 7.0 mph 8.0 mph 80% 0.00 in
11:24 46.8 °F 41.0 °F 30.18 in South 6.0 mph 8.0 mph 80% 0.00 in
11:29 47.0 °F 41.1 °F 30.18 in SSE 2.0 mph 6.0 mph 80% 0.00 in
11:34 47.1 °F 41.2 °F 30.17 in SSE 2.0 mph 6.0 mph 80% 0.00 in
11:39 47.5 °F 41.6 °F 30.16 in SSE 4.0 mph 9.0 mph 80% 0.00 in
11:44 48.0 °F 41.8 °F 30.15 in ESE 4.0 mph 8.0 mph 79% 0.00 in
11:49 48.4 °F 42.2 °F 30.14 in SSE 5.0 mph 9.0 mph 79% 0.00 in
11:54 49.1 °F 42.5 °F 30.14 in South 4.0 mph 10.0 mph 78% 0.00 in
11:59 49.4 °F 42.8 °F 30.15 in South 4.0 mph 10.0 mph 78% 0.00 in
12:04 49.7 °F 42.8 °F 30.15 in SSW 6.0 mph 10.0 mph 77% 0.00 in
12:09 49.8 °F 43.2 °F 30.14 in South 6.0 mph 12.0 mph 78% 0.00 in
12:14 49.7 °F 43.1 °F 30.14 in South 6.0 mph 12.0 mph 78% 0.00 in
12:19 49.6 °F 43.0 °F 30.13 in SSE 3.0 mph 10.0 mph 78% 0.00 in
12:24 49.5 °F 43.3 °F 30.13 in South 2.0 mph 10.0 mph 79% 0.00 in
12:29 49.5 °F 43.3 °F 30.12 in SSW 4.0 mph 11.0 mph 79% 0.00 in
12:34 49.7 °F 43.5 °F 30.11 in South 4.0 mph 9.0 mph 79% 0.00 in
12:39 49.9 °F 44.0 °F 30.11 in SW 7.0 mph 10.0 mph 80% 0.00 in
12:44 50.1 °F 44.2 °F 30.11 in South 6.0 mph 12.0 mph 80% 0.00 in
12:49 50.1 °F 44.2 °F 30.11 in South 6.0 mph 13.0 mph 80% 0.00 in
12:54 50.2 °F 44.3 °F 30.10 in South 7.0 mph 13.0 mph 80% 0.00 in
12:59 50.1 °F 44.2 °F 30.10 in South 7.0 mph 14.0 mph 80% 0.00 in
13:04 49.7 °F 44.4 °F 30.10 in SSW 5.0 mph 12.0 mph 82% 0.01 in
13:09 49.6 °F 44.6 °F 30.09 in South 5.0 mph 12.0 mph 83% 0.02 in
13:14 49.5 °F 44.9 °F 30.09 in SSW 4.0 mph 9.0 mph 84% 0.02 in
13:19 49.4 °F 44.8 °F 30.10 in SW 2.0 mph 6.0 mph 84% 0.03 in
13:24 49.4 °F 45.1 °F 30.09 in SSW 3.0 mph 6.0 mph 85% 0.03 in
13:29 49.6 °F 45.3 °F 30.09 in SW 4.0 mph 8.0 mph 85% 0.03 in
13:34 49.7 °F 45.4 °F 30.09 in West 2.0 mph 8.0 mph 85% 0.03 in
13:39 49.9 °F 45.9 °F 30.08 in SSW 3.0 mph 9.0 mph 86% 0.03 in
13:44 50.2 °F 45.9 °F 30.07 in SSW 4.0 mph 10.0 mph 85% 0.03 in
13:49 50.4 °F 46.1 °F 30.07 in SSW 5.0 mph 14.0 mph 85% 0.03 in
13:54 50.7 °F 46.0 °F 30.06 in SSW 2.0 mph 10.0 mph 84% 0.03 in
13:59 50.8 °F 46.1 °F 30.07 in SW 4.0 mph 9.0 mph 84% 0.03 in
14:04 50.6 °F 45.6 °F 30.07 in SW 6.0 mph 8.0 mph 83% 0.02 in
14:09 50.5 °F 45.5 °F 30.06 in SSW 1.0 mph 7.0 mph 83% 0.01 in
14:14 50.6 °F 45.9 °F 30.06 in SW 3.0 mph 7.0 mph 84% 0.01 in
14:19 50.6 °F 45.9 °F 30.06 in SW 3.0 mph 6.0 mph 84% 0.00 in
14:24 50.7 °F 46.0 °F 30.05 in SSE 3.0 mph 8.0 mph 84% 0.00 in
14:29 51.2 °F 46.5 °F 30.05 in SSW 9.0 mph 11.0 mph 84% 0.00 in
14:34 51.5 °F 46.5 °F 30.05 in SSW 7.0 mph 10.0 mph 83% 0.00 in
14:39 51.4 °F 46.7 °F 30.05 in SSW 5.0 mph 14.0 mph 84% 0.04 in
14:44 51.0 °F 46.3 °F 30.06 in SW 6.0 mph 12.0 mph 84% 0.06 in
14:49 50.7 °F 46.4 °F 30.05 in South 6.0 mph 13.0 mph 85% 0.09 in
14:54 50.5 °F 46.5 °F 30.06 in South 6.0 mph 13.0 mph 86% 0.11 in
14:59 50.3 °F 46.3 °F 30.06 in SW 8.0 mph 14.0 mph 86% 0.12 in
15:04 50.2 °F 46.5 °F 30.06 in SSW 6.0 mph 15.0 mph 87% 0.18 in
15:09 50.1 °F 46.4 °F 30.05 in SSW 6.0 mph 15.0 mph 87% 0.18 in
15:14 50.1 °F 46.7 °F 30.05 in South 12.0 mph 13.0 mph 88% 0.19 in
15:19 50.1 °F 46.7 °F 30.06 in SW 4.0 mph 12.0 mph 88% 0.19 in
15:24 50.1 °F 46.7 °F 30.06 in SSW 6.0 mph 12.0 mph 88% 0.20 in
15:29 50.1 °F 47.0 °F 30.06 in SSW 3.0 mph 8.0 mph 89% 0.20 in
15:39 50.3 °F 47.2 °F 30.05 in South 9.0 mph 13.0 mph 89% 0.17 in
15:44 50.5 °F 47.4 °F 30.05 in WSW 4.0 mph 14.0 mph 89% 0.15 in
15:49 50.6 °F 47.5 °F 30.05 in SSW 7.0 mph 14.0 mph 89% 0.12 in
15:54 50.6 °F 47.5 °F 30.05 in SSW 7.0 mph 15.0 mph 89% 0.10 in
15:59 50.5 °F 47.4 °F 30.05 in SSW 7.0 mph 15.0 mph 89% 0.07 in
16:04 50.6 °F 47.5 °F 30.05 in South 14.0 mph 15.0 mph 89% 0.04 in
16:09 50.6 °F 47.5 °F 30.05 in SSW 8.0 mph 17.0 mph 89% 0.04 in
16:14 50.5 °F 47.4 °F 30.05 in SW 6.0 mph 18.0 mph 89% 0.03 in
16:19 50.4 °F 47.3 °F 30.05 in SSE 7.0 mph 14.0 mph 89% 0.03 in
16:24 50.4 °F 47.3 °F 30.05 in SSW 12.0 mph 16.0 mph 89% 0.02 in
16:29 50.5 °F 47.7 °F 30.05 in SSW 8.0 mph 17.0 mph 90% 0.02 in
16:34 50.5 °F 47.7 °F 30.05 in SSW 7.0 mph 18.0 mph 90% 0.01 in
16:44 50.7 °F 47.9 °F 30.06 in SW 8.0 mph 16.0 mph 90% 0.02 in
16:54 51.4 °F 48.9 °F 30.06 in SW 11.0 mph 24.0 mph 91% 0.02 in
16:59 51.8 °F 49.3 °F 30.06 in WSW 11.0 mph 24.0 mph 91% 0.02 in
17:04 51.9 °F 49.4 °F 30.06 in SW 10.0 mph 19.0 mph 91% 0.01 in
17:09 51.5 °F 48.7 °F 30.06 in SW 14.0 mph 27.0 mph 90% 0.01 in
17:14 50.9 °F 48.1 °F 30.06 in West 14.0 mph 25.0 mph 90% 0.01 in
17:19 50.4 °F 47.6 °F 30.07 in WSW 14.0 mph 25.0 mph 90% 0.01 in
17:24 50.0 °F 47.2 °F 30.07 in WSW 13.0 mph 25.0 mph 90% 0.01 in
17:29 49.6 °F 46.8 °F 30.07 in WSW 17.0 mph 21.0 mph 90% 0.01 in
17:34 49.0 °F 46.2 °F 30.07 in WSW 9.0 mph 21.0 mph 90% 0.01 in
17:39 48.3 °F 45.5 °F 30.07 in WSW 13.0 mph 17.0 mph 90% 0.00 in
17:44 47.8 °F 45.0 °F 30.08 in WSW 14.0 mph 20.0 mph 90% 0.00 in
17:49 47.1 °F 44.3 °F 30.08 in WSW 10.0 mph 20.0 mph 90% 0.00 in
17:54 46.4 °F 43.6 °F 30.08 in SSW 10.0 mph 18.0 mph 90% 0.00 in
17:59 45.7 °F 42.9 °F 30.08 in SW 7.0 mph 19.0 mph 90% 0.00 in
18:04 45.2 °F 42.4 °F 30.09 in WSW 5.0 mph 13.0 mph 90% 0.00 in
18:09 44.9 °F 42.1 °F 30.09 in WSW 5.0 mph 16.0 mph 90% 0.00 in
18:14 44.6 °F 41.8 °F 30.09 in WSW 6.0 mph 16.0 mph 90% 0.00 in
18:19 44.3 °F 41.6 °F 30.09 in SW 6.0 mph 11.0 mph 90% 0.00 in
18:24 44.0 °F 41.3 °F 30.10 in SW 6.0 mph 11.0 mph 90% 0.00 in
18:29 43.6 °F 40.9 °F 30.10 in SW 5.0 mph 9.0 mph 90% 0.00 in
18:34 43.0 °F 40.3 °F 30.10 in SW 3.0 mph 12.0 mph 90% 0.00 in
18:39 42.5 °F 39.8 °F 30.10 in SW 6.0 mph 8.0 mph 90% 0.00 in
18:44 42.0 °F 39.3 °F 30.11 in SW 5.0 mph 11.0 mph 90% 0.00 in
18:49 41.7 °F 39.0 °F 30.11 in SW 5.0 mph 11.0 mph 90% 0.00 in
18:54 41.3 °F 38.6 °F 30.11 in SW 6.0 mph 14.0 mph 90% 0.00 in
18:59 41.0 °F 38.3 °F 30.11 in SW 7.0 mph 14.0 mph 90% 0.00 in
19:04 40.8 °F 38.1 °F 30.12 in SW 7.0 mph 17.0 mph 90% 0.00 in
19:09 40.6 °F 38.2 °F 30.13 in West 6.0 mph 12.0 mph 91% 0.00 in
19:14 40.5 °F 38.1 °F 30.13 in SW 12.0 mph 20.0 mph 91% 0.00 in
19:19 40.5 °F 38.1 °F 30.12 in SW 9.0 mph 20.0 mph 91% 0.00 in
19:24 40.6 °F 38.2 °F 30.12 in SW 8.0 mph 17.0 mph 91% 0.00 in
19:29 40.8 °F 38.4 °F 30.12 in SW 8.0 mph 14.0 mph 91% 0.00 in
19:34 41.0 °F 38.6 °F 30.12 in SW 7.0 mph 13.0 mph 91% 0.00 in
19:39 41.3 °F 38.9 °F 30.13 in West 10.0 mph 17.0 mph 91% 0.00 in
19:44 41.5 °F 39.3 °F 30.12 in WSW 9.0 mph 18.0 mph 92% 0.00 in
19:49 41.5 °F 39.1 °F 30.13 in SW 11.0 mph 17.0 mph 91% 0.00 in
19:54 41.5 °F 39.3 °F 30.12 in SW 6.0 mph 15.0 mph 92% 0.00 in
19:59 41.6 °F 39.4 °F 30.13 in WSW 4.0 mph 14.0 mph 92% 0.00 in
20:04 41.6 °F 39.4 °F 30.14 in SW 6.0 mph 14.0 mph 92% 0.00 in
20:09 41.6 °F 39.4 °F 30.13 in SSW 7.0 mph 14.0 mph 92% 0.00 in
20:14 41.7 °F 39.5 °F 30.13 in SW 8.0 mph 15.0 mph 92% 0.00 in
20:19 41.7 °F 39.5 °F 30.13 in SW 9.0 mph 18.0 mph 92% 0.00 in
20:24 41.6 °F 39.4 °F 30.13 in SW 9.0 mph 18.0 mph 92% 0.00 in
20:29 41.5 °F 39.3 °F 30.14 in SW 9.0 mph 16.0 mph 92% 0.00 in
20:34 41.4 °F 39.3 °F 30.14 in WSW 8.0 mph 16.0 mph 92% 0.00 in
20:39 41.2 °F 39.1 °F 30.14 in WSW 8.0 mph 15.0 mph 92% 0.00 in
20:44 41.1 °F 39.0 °F 30.14 in WSW 8.0 mph 18.0 mph 92% 0.00 in
20:49 41.0 °F 38.9 °F 30.14 in WSW 8.0 mph 18.0 mph 92% 0.00 in
20:54 40.9 °F 38.8 °F 30.14 in WSW 9.0 mph 16.0 mph 92% 0.00 in
20:59 40.9 °F 38.8 °F 30.15 in SW 6.0 mph 16.0 mph 92% 0.00 in
21:04 40.8 °F 38.7 °F 30.15 in West 12.0 mph 16.0 mph 92% 0.00 in
21:09 40.8 °F 38.7 °F 30.14 in SW 4.0 mph 14.0 mph 92% 0.00 in
21:14 40.8 °F 38.7 °F 30.15 in WSW 7.0 mph 14.0 mph 92% 0.00 in
21:19 40.7 °F 38.6 °F 30.15 in WSW 6.0 mph 12.0 mph 92% 0.00 in
21:24 40.6 °F 38.5 °F 30.15 in WSW 6.0 mph 14.0 mph 92% 0.00 in
21:29 40.4 °F 38.3 °F 30.15 in WSW 5.0 mph 13.0 mph 92% 0.00 in
21:34 40.3 °F 38.2 °F 30.16 in WSW 6.0 mph 12.0 mph 92% 0.00 in
21:39 40.1 °F 38.0 °F 30.16 in WSW 10.0 mph 12.0 mph 92% 0.00 in
21:44 40.0 °F 37.9 °F 30.16 in WSW 7.0 mph 14.0 mph 92% 0.00 in
21:49 39.9 °F 37.8 °F 30.16 in WSW 7.0 mph 14.0 mph 92% 0.00 in
21:54 39.8 °F 37.7 °F 30.16 in WSW 6.0 mph 12.0 mph 92% 0.00 in
21:59 39.7 °F 37.6 °F 30.16 in WSW 6.0 mph 12.0 mph 92% 0.00 in
22:04 39.6 °F 37.5 °F 30.16 in SW 6.0 mph 12.0 mph 92% 0.00 in
22:09 39.5 °F 37.4 °F 30.16 in WSW 7.0 mph 12.0 mph 92% 0.00 in
22:14 39.5 °F 37.4 °F 30.16 in WSW 6.0 mph 13.0 mph 92% 0.00 in
22:19 39.5 °F 37.4 °F 30.16 in SW 6.0 mph 12.0 mph 92% 0.00 in
22:24 39.6 °F 37.5 °F 30.17 in WSW 6.0 mph 12.0 mph 92% 0.00 in
22:29 39.7 °F 37.6 °F 30.16 in SW 5.0 mph 14.0 mph 92% 0.00 in
22:34 39.7 °F 37.6 °F 30.16 in SW 7.0 mph 11.0 mph 92% 0.00 in
22:39 39.7 °F 37.6 °F 30.16 in WSW 7.0 mph 11.0 mph 92% 0.00 in
22:44 39.6 °F 37.5 °F 30.16 in WSW 6.0 mph 10.0 mph 92% 0.00 in
22:49 39.7 °F 37.6 °F 30.16 in WSW 5.0 mph 10.0 mph 92% 0.00 in
22:54 39.7 °F 37.6 °F 30.16 in WSW 5.0 mph 11.0 mph 92% 0.00 in
22:59 39.7 °F 37.6 °F 30.16 in WSW 5.0 mph 11.0 mph 92% 0.00 in
23:04 39.7 °F 37.6 °F 30.16 in WSW 6.0 mph 11.0 mph 92% 0.00 in
23:09 39.7 °F 37.6 °F 30.16 in WSW 6.0 mph 11.0 mph 92% 0.00 in
23:14 39.6 °F 37.5 °F 30.16 in SW 5.0 mph 10.0 mph 92% 0.00 in
23:19 39.6 °F 37.7 °F 30.16 in West 5.0 mph 11.0 mph 93% 0.00 in
23:24 39.5 °F 37.6 °F 30.16 in SW 7.0 mph 10.0 mph 93% 0.00 in
23:29 39.6 °F 37.7 °F 30.16 in SW 5.0 mph 14.0 mph 93% 0.00 in
23:34 39.5 °F 37.6 °F 30.16 in SW 6.0 mph 11.0 mph 93% 0.00 in
23:39 39.6 °F 37.7 °F 30.16 in WSW 6.0 mph 11.0 mph 93% 0.00 in
23:44 39.4 °F 37.5 °F 30.16 in WSW 6.0 mph 11.0 mph 93% 0.00 in
23:49 39.3 °F 37.2 °F 30.17 in WSW 6.0 mph 13.0 mph 92% 0.00 in
23:54 39.3 °F 37.2 °F 30.17 in WSW 5.0 mph 13.0 mph 92% 0.00 in
23:59 39.2 °F 37.1 °F 30.17 in West 7.0 mph 10.0 mph 92% 0.00 in
Buffalo, New York, USA
Compliments of Weather Underground - 2.5 mb